createdAt,value
2023-01-26T00:00:17.934Z,100787.00
2023-01-26T00:02:46.635Z,100772.00
2023-01-26T00:05:15.511Z,100793.00
2023-01-26T00:07:45.609Z,100797.00
2023-01-26T00:10:15.210Z,100788.00
2023-01-26T00:12:43.842Z,100792.00
2023-01-26T00:15:12.798Z,100802.00
2023-01-26T00:17:42.768Z,100795.00
2023-01-26T00:20:13.352Z,100792.00
2023-01-26T00:22:42.260Z,100794.00
2023-01-26T00:25:11.730Z,100792.00
2023-01-26T00:27:41.754Z,100785.00
2023-01-26T00:30:14.338Z,100799.00
2023-01-26T00:32:44.438Z,100797.00
2023-01-26T00:35:13.485Z,100793.00
2023-01-26T00:37:43.195Z,100765.00
2023-01-26T00:40:13.408Z,100786.00
2023-01-26T00:42:42.318Z,100782.00
2023-01-26T00:45:11.694Z,100789.00
2023-01-26T00:47:40.552Z,100778.00
2023-01-26T00:50:12.598Z,100787.00
2023-01-26T00:52:41.652Z,100783.00
2023-01-26T00:55:10.641Z,100787.00
2023-01-26T00:57:39.334Z,100778.00
2023-01-26T01:00:13.726Z,100792.00
2023-01-26T01:02:42.532Z,100793.00
2023-01-26T01:05:14.185Z,100793.00
2023-01-26T01:07:42.885Z,100799.00
2023-01-26T01:10:12.696Z,100799.00
2023-01-26T01:12:41.626Z,100795.00
2023-01-26T01:15:11.220Z,100792.00
2023-01-26T01:17:41.221Z,100793.00
2023-01-26T01:20:14.248Z,100789.00
2023-01-26T01:22:43.539Z,100786.00
2023-01-26T01:25:12.955Z,100791.00
2023-01-26T01:27:41.556Z,100781.00
2023-01-26T01:30:12.150Z,100793.00
2023-01-26T01:32:41.017Z,100793.00
2023-01-26T01:35:10.429Z,100786.00
2023-01-26T01:37:40.416Z,100788.00
2023-01-26T01:40:14.013Z,100780.00
2023-01-26T01:42:49.122Z,100791.00
2023-01-26T01:45:43.354Z,100789.00
2023-01-26T01:48:22.311Z,100782.00
2023-01-26T01:50:53.524Z,100795.00
2023-01-26T01:53:29.052Z,100799.00
2023-01-26T01:56:03.957Z,100782.00
2023-01-26T01:58:37.917Z,100783.00
2023-01-26T02:01:06.757Z,100794.00
2023-01-26T02:03:37.064Z,100778.00
2023-01-26T02:06:12.683Z,100785.00
2023-01-26T02:08:48.646Z,100774.00
2023-01-26T02:11:22.143Z,100776.00
2023-01-26T02:13:51.747Z,100770.00
2023-01-26T02:16:21.428Z,100761.00
2023-01-26T02:18:50.242Z,100781.00
2023-01-26T02:21:22.221Z,100782.00
2023-01-26T02:24:09.171Z,100785.00
2023-01-26T02:26:39.996Z,100783.00
2023-01-26T02:29:12.832Z,100764.00
2023-01-26T02:31:45.689Z,100769.00
2023-01-26T02:34:14.588Z,100763.00
2023-01-26T02:36:43.247Z,100751.00
2023-01-26T02:39:29.376Z,100763.00
2023-01-26T02:42:17.102Z,100765.00
2023-01-26T02:44:46.222Z,100767.00
2023-01-26T02:47:17.682Z,100766.00
2023-01-26T02:49:47.322Z,100768.00
2023-01-26T02:52:18.512Z,100774.00
2023-01-26T02:55:08.006Z,100760.00
2023-01-26T02:57:38.343Z,100767.00
2023-01-26T03:00:13.719Z,100769.00
2023-01-26T03:02:43.465Z,100762.00
2023-01-26T03:05:12.273Z,100757.00
2023-01-26T03:07:42.115Z,100757.00
2023-01-26T03:10:12.939Z,100761.00
2023-01-26T03:12:43.460Z,100750.00
2023-01-26T03:15:30.687Z,100750.00
2023-01-26T03:18:22.021Z,100739.00
2023-01-26T03:21:09.776Z,100732.00
2023-01-26T03:23:55.741Z,100730.00
2023-01-26T03:26:43.943Z,100737.00
2023-01-26T03:29:14.140Z,100735.00
2023-01-26T03:31:44.798Z,100728.00
2023-01-26T03:34:13.670Z,100719.00
2023-01-26T03:36:43.432Z,100724.00
2023-01-26T03:39:30.178Z,100703.00
2023-01-26T03:42:16.538Z,100726.00
2023-01-26T03:45:04.312Z,100718.00
2023-01-26T03:47:51.302Z,100722.00
2023-01-26T03:50:38.278Z,100708.00
2023-01-26T03:53:33.434Z,100711.00
2023-01-26T03:56:18.113Z,100722.00
2023-01-26T03:58:49.585Z,100702.00
2023-01-26T04:01:21.104Z,100707.00
2023-01-26T04:04:11.188Z,100723.00
2023-01-26T04:07:00.753Z,100714.00
2023-01-26T04:09:29.717Z,100706.00
2023-01-26T04:12:00.883Z,100713.00
2023-01-26T04:14:49.243Z,100711.00
2023-01-26T04:17:38.100Z,100701.00
2023-01-26T04:20:26.116Z,100714.00
2023-01-26T04:22:54.789Z,100707.00
2023-01-26T04:25:24.648Z,100702.00
2023-01-26T04:27:53.892Z,100704.00
2023-01-26T04:30:23.060Z,100709.00
2023-01-26T04:32:53.994Z,100707.00
2023-01-26T04:35:22.592Z,100704.00
2023-01-26T04:37:51.573Z,100700.00
2023-01-26T04:40:20.863Z,100701.00
2023-01-26T04:42:50.871Z,100709.00
2023-01-26T04:45:19.576Z,100695.00
2023-01-26T04:47:48.936Z,100701.00
2023-01-26T04:50:20.509Z,100691.00
2023-01-26T04:52:49.794Z,100693.00
2023-01-26T04:55:19.385Z,100701.00
2023-01-26T04:57:48.179Z,100715.00
2023-01-26T05:00:17.498Z,100712.00
2023-01-26T05:02:46.195Z,100705.00
2023-01-26T05:05:16.284Z,100711.00
2023-01-26T05:07:50.497Z,100710.00
2023-01-26T05:10:20.695Z,100701.00
2023-01-26T05:13:01.482Z,100704.00
2023-01-26T05:15:45.640Z,100701.00
2023-01-26T05:18:22.295Z,100706.00
2023-01-26T05:21:18.319Z,100694.00
2023-01-26T05:23:55.191Z,100695.00
2023-01-26T05:26:30.111Z,100700.00
2023-01-26T05:29:02.704Z,100704.00
2023-01-26T05:31:31.678Z,100710.00
2023-01-26T05:34:01.090Z,100714.00
2023-01-26T05:36:30.144Z,100714.00
2023-01-26T05:39:00.738Z,100717.00
2023-01-26T05:41:29.855Z,100728.00
2023-01-26T05:44:25.688Z,100730.00
2023-01-26T05:47:00.486Z,100725.00
2023-01-26T05:49:29.186Z,100732.00
2023-01-26T05:51:58.280Z,100730.00
2023-01-26T05:54:28.629Z,100733.00
2023-01-26T05:56:58.068Z,100720.00
2023-01-26T05:59:28.749Z,100719.00
2023-01-26T06:01:57.764Z,100724.00
2023-01-26T06:04:28.350Z,100729.00
2023-01-26T06:07:01.594Z,100722.00
2023-01-26T06:09:35.427Z,100707.00
2023-01-26T06:12:19.903Z,100729.00
2023-01-26T06:15:12.524Z,100719.00
2023-01-26T06:17:45.174Z,100736.00
2023-01-26T06:20:16.300Z,100723.00
2023-01-26T06:22:53.243Z,100722.00
2023-01-26T06:25:23.396Z,100743.00
2023-01-26T06:27:52.259Z,100742.00
2023-01-26T06:30:27.817Z,100748.00
2023-01-26T06:33:01.617Z,100745.00
2023-01-26T06:35:31.469Z,100748.00
2023-01-26T06:38:03.958Z,100741.00
2023-01-26T06:40:34.308Z,100753.00
2023-01-26T06:43:03.594Z,100751.00
2023-01-26T06:45:34.480Z,100746.00
2023-01-26T06:48:03.417Z,100762.00
2023-01-26T06:50:34.769Z,100756.00
2023-01-26T06:53:34.332Z,100755.00
2023-01-26T06:56:24.181Z,100755.00
2023-01-26T06:59:07.249Z,100758.00
2023-01-26T07:02:00.382Z,100757.00
2023-01-26T07:04:29.415Z,100762.00
2023-01-26T07:06:58.079Z,100748.00
2023-01-26T07:09:26.836Z,100756.00
2023-01-26T07:11:56.905Z,100759.00
2023-01-26T07:14:25.629Z,100768.00
2023-01-26T07:16:54.346Z,100761.00
2023-01-26T07:19:23.297Z,100769.00
2023-01-26T07:21:51.892Z,100766.00
2023-01-26T07:24:21.996Z,100759.00
2023-01-26T07:26:50.797Z,100756.00
2023-01-26T07:29:20.947Z,100753.00
2023-01-26T07:31:49.695Z,100755.00
2023-01-26T07:34:18.564Z,100752.00
2023-01-26T07:36:47.275Z,100758.00
2023-01-26T07:39:15.917Z,100762.00
2023-01-26T07:41:44.584Z,100767.00
2023-01-26T07:44:47.147Z,100766.00
2023-01-26T07:47:15.928Z,100764.00
2023-01-26T07:49:44.716Z,100771.00
2023-01-26T07:52:13.344Z,100774.00
2023-01-26T07:54:41.980Z,100770.00
2023-01-26T07:57:10.618Z,100771.00
2023-01-26T07:59:39.293Z,100773.00
2023-01-26T08:02:11.694Z,100778.00
2023-01-26T08:04:40.278Z,100770.00
2023-01-26T08:07:09.129Z,100767.00
2023-01-26T08:09:37.953Z,100772.00
2023-01-26T08:12:07.491Z,100769.00
2023-01-26T08:14:46.487Z,100772.00
2023-01-26T08:17:17.698Z,100769.00
2023-01-26T08:19:47.012Z,100767.00
2023-01-26T08:22:15.880Z,100770.00
2023-01-26T08:24:46.173Z,100766.00
2023-01-26T08:27:16.228Z,100776.00
2023-01-26T08:29:45.215Z,100783.00
2023-01-26T08:32:13.938Z,100784.00
2023-01-26T08:34:45.349Z,100775.00
2023-01-26T08:37:14.036Z,100778.00
2023-01-26T08:39:42.723Z,100776.00
2023-01-26T08:42:11.564Z,100782.00
2023-01-26T08:44:40.144Z,100783.00
2023-01-26T08:47:08.841Z,100789.00
2023-01-26T08:49:37.494Z,100791.00
2023-01-26T08:52:07.708Z,100787.00
2023-01-26T08:54:36.424Z,100784.00
2023-01-26T08:57:05.303Z,100793.00
2023-01-26T08:59:33.881Z,100791.00
2023-01-26T09:02:02.694Z,100790.00
2023-01-26T09:04:31.418Z,100793.00
2023-01-26T09:07:00.118Z,100793.00
2023-01-26T09:09:30.231Z,100797.00
2023-01-26T09:11:59.170Z,100786.00
2023-01-26T09:14:28.771Z,100785.00
2023-01-26T09:16:57.718Z,100793.00
2023-01-26T09:19:26.501Z,100785.00
2023-01-26T09:21:55.693Z,100789.00
2023-01-26T09:24:24.632Z,100784.00
2023-01-26T09:26:54.755Z,100776.00
2023-01-26T09:29:23.663Z,100788.00
2023-01-26T09:31:52.492Z,100784.00
2023-01-26T09:34:21.149Z,100790.00
2023-01-26T09:36:49.845Z,100780.00
2023-01-26T09:39:18.748Z,100779.00
2023-01-26T09:42:18.666Z,100776.00
2023-01-26T09:45:07.185Z,100777.00
2023-01-26T09:47:55.002Z,100774.00
2023-01-26T09:50:29.670Z,100779.00
2023-01-26T09:53:05.363Z,100777.00
2023-01-26T09:55:35.264Z,100775.00
2023-01-26T09:58:13.993Z,100782.00
2023-01-26T10:00:49.653Z,100774.00
2023-01-26T10:03:30.163Z,100783.00
2023-01-26T10:06:13.624Z,100788.00
2023-01-26T10:09:12.536Z,100776.00
2023-01-26T10:11:46.310Z,100784.00
2023-01-26T10:14:30.605Z,100786.00
2023-01-26T10:17:01.940Z,100788.00
2023-01-26T10:19:37.797Z,100785.00
2023-01-26T10:22:15.206Z,100786.00
2023-01-26T10:24:46.431Z,100785.00
2023-01-26T10:27:15.201Z,100782.00
2023-01-26T10:29:45.296Z,100785.00
2023-01-26T10:32:16.120Z,100779.00
2023-01-26T10:34:47.558Z,100779.00
2023-01-26T10:37:22.869Z,100770.00
2023-01-26T10:40:03.883Z,100757.00
2023-01-26T10:42:36.671Z,100766.00
2023-01-26T10:45:28.098Z,100767.00
2023-01-26T10:48:08.141Z,100759.00
2023-01-26T10:50:37.618Z,100766.00
2023-01-26T10:53:07.219Z,100773.00
2023-01-26T10:55:37.485Z,100767.00
2023-01-26T10:58:06.198Z,100769.00
2023-01-26T11:00:37.976Z,100778.00
2023-01-26T11:03:20.099Z,100777.00
2023-01-26T11:06:08.882Z,100778.00
2023-01-26T11:08:40.319Z,100756.00
2023-01-26T11:11:26.376Z,100757.00
2023-01-26T11:14:15.060Z,100754.00
2023-01-26T11:16:52.141Z,100757.00
2023-01-26T11:20:04.138Z,100754.00
2023-01-26T11:22:43.629Z,100758.00
2023-01-26T11:25:25.854Z,100764.00
2023-01-26T11:28:28.038Z,100758.00
2023-01-26T11:31:22.744Z,100745.00
2023-01-26T11:34:09.136Z,100760.00
2023-01-26T11:36:52.861Z,100753.00
2023-01-26T11:39:32.230Z,100750.00
2023-01-26T11:42:19.637Z,100729.00
2023-01-26T11:45:04.930Z,100733.00
2023-01-26T11:47:51.082Z,100738.00
2023-01-26T11:50:36.389Z,100745.00
2023-01-26T11:53:37.277Z,100745.00
2023-01-26T11:56:37.250Z,100745.00
2023-01-26T11:59:13.587Z,100746.00
2023-01-26T12:01:53.057Z,100737.00
2023-01-26T12:04:23.679Z,100741.00
2023-01-26T12:07:00.781Z,100735.00
2023-01-26T12:09:39.713Z,100740.00
2023-01-26T12:12:19.359Z,100744.00
2023-01-26T12:14:58.627Z,100755.00
2023-01-26T12:17:41.337Z,100762.00
2023-01-26T12:20:29.145Z,100770.00
2023-01-26T12:23:07.673Z,100759.00
2023-01-26T12:25:38.670Z,100765.00
2023-01-26T12:28:19.447Z,100770.00
2023-01-26T12:30:58.962Z,100764.00
2023-01-26T12:33:27.703Z,100769.00
2023-01-26T12:36:42.055Z,100762.00
2023-01-26T12:39:18.200Z,100775.00
2023-01-26T12:42:15.779Z,100772.00
2023-01-26T12:44:49.252Z,100772.00
2023-01-26T12:47:28.089Z,100766.00
2023-01-26T12:50:05.620Z,100780.00
2023-01-26T12:52:44.147Z,100772.00
2023-01-26T12:55:21.848Z,100775.00
2023-01-26T12:57:55.920Z,100775.00
2023-01-26T13:00:29.926Z,100777.00
2023-01-26T13:03:05.116Z,100771.00
2023-01-26T13:05:37.207Z,100766.00
2023-01-26T13:08:51.558Z,100775.00
2023-01-26T13:11:45.882Z,100771.00
2023-01-26T13:14:40.056Z,100763.00
2023-01-26T13:17:51.432Z,100768.00
2023-01-26T13:20:46.688Z,100768.00
2023-01-26T13:23:52.783Z,100774.00
2023-01-26T13:26:48.391Z,100779.00
2023-01-26T13:29:55.419Z,100784.00
2023-01-26T13:33:10.545Z,100776.00
2023-01-26T13:35:40.852Z,100790.00
2023-01-26T13:38:20.302Z,100792.00
2023-01-26T13:40:50.871Z,100792.00
2023-01-26T13:43:32.607Z,100797.00
2023-01-26T13:46:11.793Z,100800.00
2023-01-26T13:48:48.091Z,100803.00
2023-01-26T13:51:24.546Z,100802.00
2023-01-26T13:54:02.329Z,100798.00
2023-01-26T13:56:34.431Z,100800.00
2023-01-26T13:59:14.137Z,100799.00
2023-01-26T14:01:46.238Z,100795.00
2023-01-26T14:04:21.077Z,100796.00
2023-01-26T14:06:57.903Z,100799.00
2023-01-26T14:09:29.998Z,100792.00
2023-01-26T14:12:05.375Z,100791.00
2023-01-26T14:14:38.724Z,100799.00
2023-01-26T14:17:29.262Z,100794.00
2023-01-26T14:20:03.725Z,100795.00
2023-01-26T14:22:38.724Z,100801.00
2023-01-26T14:25:12.408Z,100794.00
2023-01-26T14:27:43.310Z,100799.00
2023-01-26T14:30:30.305Z,100802.00
2023-01-26T14:33:06.252Z,100797.00
2023-01-26T14:35:35.312Z,100798.00
2023-01-26T14:38:20.044Z,100805.00
2023-01-26T14:40:51.199Z,100800.00
2023-01-26T14:43:20.766Z,100788.00
2023-01-26T14:46:02.330Z,100797.00
2023-01-26T14:48:38.880Z,100796.00
2023-01-26T14:51:14.551Z,100795.00
2023-01-26T14:53:52.020Z,100803.00
2023-01-26T14:56:24.351Z,100807.00
2023-01-26T14:58:57.070Z,100818.00
2023-01-26T15:01:29.246Z,100821.00
2023-01-26T15:04:05.669Z,100824.00
2023-01-26T15:06:37.958Z,100834.00
2023-01-26T15:09:23.413Z,100828.00
2023-01-26T15:12:18.403Z,100844.00
2023-01-26T15:14:53.557Z,100827.00
2023-01-26T15:17:40.528Z,100833.00
2023-01-26T15:20:40.390Z,100828.00
2023-01-26T15:23:29.136Z,100825.00
2023-01-26T15:26:05.837Z,100826.00
2023-01-26T15:28:35.273Z,100827.00
2023-01-26T15:31:04.519Z,100814.00
2023-01-26T15:33:47.894Z,100817.00
2023-01-26T15:36:36.019Z,100827.00
2023-01-26T15:39:14.102Z,100824.00
2023-01-26T15:41:44.684Z,100822.00
2023-01-26T15:44:25.092Z,100817.00
2023-01-26T15:46:56.711Z,100815.00
2023-01-26T15:49:26.705Z,100817.00
2023-01-26T15:51:55.494Z,100816.00
2023-01-26T15:54:24.217Z,100818.00
2023-01-26T15:56:52.805Z,100822.00
2023-01-26T15:59:21.456Z,100824.00
2023-01-26T16:01:50.100Z,100812.00
2023-01-26T16:04:18.783Z,100812.00
2023-01-26T16:06:48.739Z,100815.00
2023-01-26T16:09:17.373Z,100825.00
2023-01-26T16:11:51.089Z,100823.00
2023-01-26T16:14:20.605Z,100818.00
2023-01-26T16:16:49.365Z,100827.00
2023-01-26T16:19:34.442Z,100817.00
2023-01-26T16:22:05.079Z,100822.00
2023-01-26T16:24:33.678Z,100826.00
2023-01-26T16:27:02.257Z,100816.00
2023-01-26T16:29:31.377Z,100831.00
2023-01-26T16:32:01.651Z,100833.00
2023-01-26T16:34:30.846Z,100838.00
2023-01-26T16:36:59.422Z,100836.00
2023-01-26T16:39:36.424Z,100844.00
2023-01-26T16:42:05.253Z,100843.00
2023-01-26T16:44:35.457Z,100846.00
2023-01-26T16:47:05.956Z,100847.00
2023-01-26T16:49:34.531Z,100844.00
2023-01-26T16:52:03.249Z,100850.00
2023-01-26T16:54:33.344Z,100839.00
2023-01-26T16:57:01.961Z,100844.00
2023-01-26T16:59:30.649Z,100860.00
2023-01-26T17:01:59.639Z,100859.00
2023-01-26T17:04:28.385Z,100857.00
2023-01-26T17:06:57.194Z,100864.00
2023-01-26T17:09:25.814Z,100854.00
2023-01-26T17:11:56.366Z,100862.00
2023-01-26T17:14:25.321Z,100868.00
2023-01-26T17:16:54.024Z,100867.00
2023-01-26T17:19:22.640Z,100879.00
2023-01-26T17:21:51.315Z,100883.00
2023-01-26T17:24:19.978Z,100872.00
2023-01-26T17:26:48.700Z,100870.00
2023-01-26T17:29:18.760Z,100881.00
2023-01-26T17:31:47.452Z,100888.00
2023-01-26T17:34:16.598Z,100887.00
2023-01-26T17:36:46.104Z,100881.00
2023-01-26T17:39:15.287Z,100886.00
2023-01-26T17:41:44.010Z,100886.00
2023-01-26T17:44:13.658Z,100889.00
2023-01-26T17:46:43.957Z,100887.00
2023-01-26T17:49:12.554Z,100885.00
2023-01-26T17:51:42.281Z,100891.00
2023-01-26T17:54:10.957Z,100887.00
2023-01-26T17:56:39.732Z,100885.00
2023-01-26T17:59:08.553Z,100887.00
2023-01-26T18:01:37.294Z,100887.00
2023-01-26T18:04:07.436Z,100891.00
2023-01-26T18:06:36.138Z,100892.00
2023-01-26T18:09:04.890Z,100907.00
2023-01-26T18:11:33.735Z,100910.00
2023-01-26T18:14:02.866Z,100900.00
2023-01-26T18:16:31.553Z,100906.00
2023-01-26T18:19:04.490Z,100904.00
2023-01-26T18:21:35.986Z,100913.00
2023-01-26T18:24:07.365Z,100907.00
2023-01-26T18:26:38.469Z,100901.00
2023-01-26T18:29:08.887Z,100917.00
2023-01-26T18:31:41.185Z,100909.00
2023-01-26T18:34:11.470Z,100911.00
2023-01-26T18:36:41.629Z,100917.00
2023-01-26T18:39:16.770Z,100918.00
2023-01-26T18:41:45.515Z,100918.00
2023-01-26T18:44:14.273Z,100926.00
2023-01-26T18:46:43.117Z,100927.00
2023-01-26T18:49:12.091Z,100923.00
2023-01-26T18:51:47.967Z,100921.00
2023-01-26T18:54:17.566Z,100924.00
2023-01-26T18:56:46.973Z,100932.00
2023-01-26T18:59:16.291Z,100933.00
2023-01-26T19:01:45.219Z,100941.00
2023-01-26T19:04:15.058Z,100945.00
2023-01-26T19:06:47.655Z,100949.00
2023-01-26T19:09:16.293Z,100948.00
2023-01-26T19:11:45.233Z,100946.00
2023-01-26T19:14:13.894Z,100954.00
2023-01-26T19:16:44.147Z,100960.00
2023-01-26T19:19:13.666Z,100946.00
2023-01-26T19:21:42.308Z,100960.00
2023-01-26T19:24:12.450Z,100969.00
2023-01-26T19:26:41.153Z,100968.00
2023-01-26T19:29:11.577Z,100965.00
2023-01-26T19:31:40.290Z,100963.00
2023-01-26T19:34:14.260Z,100967.00
2023-01-26T19:36:42.850Z,100973.00
2023-01-26T19:39:13.744Z,100970.00
2023-01-26T19:41:44.220Z,100985.00
2023-01-26T19:44:13.032Z,100985.00
2023-01-26T19:46:41.658Z,100985.00
2023-01-26T19:49:11.874Z,100982.00
2023-01-26T19:51:40.500Z,100986.00
2023-01-26T19:54:10.527Z,100982.00
2023-01-26T19:56:40.786Z,100987.00
2023-01-26T19:59:12.866Z,100984.00
2023-01-26T20:01:41.649Z,100985.00
2023-01-26T20:04:15.494Z,100995.00
2023-01-26T20:06:44.168Z,101005.00
2023-01-26T20:09:12.888Z,101002.00
2023-01-26T20:11:42.963Z,101008.00
2023-01-26T20:14:12.732Z,101010.00
2023-01-26T20:16:42.953Z,101011.00
2023-01-26T20:19:14.332Z,101015.00
2023-01-26T20:21:43.088Z,101012.00
2023-01-26T20:24:14.655Z,101023.00
2023-01-26T20:26:46.354Z,101006.00
2023-01-26T20:29:22.536Z,101009.00
2023-01-26T20:31:52.115Z,101020.00
2023-01-26T20:34:22.731Z,101016.00
2023-01-26T20:36:56.461Z,101018.00
2023-01-26T20:39:26.032Z,101017.00
2023-01-26T20:41:56.130Z,101019.00
2023-01-26T20:44:25.431Z,101030.00
2023-01-26T20:46:54.073Z,101029.00
2023-01-26T20:49:22.787Z,101023.00
2023-01-26T20:51:52.857Z,101035.00
2023-01-26T20:54:22.266Z,101033.00
2023-01-26T20:56:51.511Z,101031.00
2023-01-26T20:59:23.067Z,101035.00
2023-01-26T21:01:56.069Z,101035.00
2023-01-26T21:04:26.931Z,101041.00
2023-01-26T21:06:55.840Z,101043.00
2023-01-26T21:09:24.461Z,101057.00
2023-01-26T21:11:53.073Z,101064.00
2023-01-26T21:14:23.027Z,101059.00
2023-01-26T21:16:51.724Z,101067.00
2023-01-26T21:19:21.871Z,101071.00
2023-01-26T21:21:50.873Z,101074.00
2023-01-26T21:24:19.595Z,101075.00
2023-01-26T21:26:49.009Z,101090.00
2023-01-26T21:29:18.255Z,101090.00
2023-01-26T21:31:48.973Z,101085.00
2023-01-26T21:34:17.707Z,101085.00
2023-01-26T21:36:46.371Z,101089.00
2023-01-26T21:39:15.914Z,101087.00
2023-01-26T21:42:00.811Z,101093.00
2023-01-26T21:44:31.473Z,101095.00
2023-01-26T21:47:04.820Z,101099.00
2023-01-26T21:49:33.489Z,101095.00
2023-01-26T21:52:19.268Z,101109.00
2023-01-26T21:54:47.875Z,101110.00
2023-01-26T21:57:34.128Z,101116.00
2023-01-26T22:00:03.331Z,101122.00
2023-01-26T22:02:34.927Z,101121.00
2023-01-26T22:05:03.638Z,101134.00
2023-01-26T22:07:33.359Z,101136.00
2023-01-26T22:10:01.994Z,101137.00
2023-01-26T22:12:32.164Z,101135.00
2023-01-26T22:15:00.798Z,101146.00
2023-01-26T22:17:29.396Z,101147.00
2023-01-26T22:19:59.642Z,101163.00
2023-01-26T22:22:28.287Z,101164.00
2023-01-26T22:24:56.870Z,101165.00
2023-01-26T22:27:25.592Z,101165.00
2023-01-26T22:29:54.240Z,101169.00
2023-01-26T22:32:23.210Z,101174.00
2023-01-26T22:34:52.018Z,101174.00
2023-01-26T22:37:24.647Z,101178.00
2023-01-26T22:39:53.498Z,101188.00
2023-01-26T22:42:23.350Z,101178.00
2023-01-26T22:44:52.010Z,101195.00
2023-01-26T22:47:20.569Z,101183.00
2023-01-26T22:49:49.158Z,101183.00
2023-01-26T22:52:17.778Z,101191.00
2023-01-26T22:54:47.770Z,101201.00
2023-01-26T22:57:16.582Z,101199.00
2023-01-26T22:59:45.242Z,101206.00
2023-01-26T23:02:13.942Z,101203.00
2023-01-26T23:04:42.598Z,101214.00
2023-01-26T23:07:11.321Z,101225.00
2023-01-26T23:09:39.936Z,101220.00
2023-01-26T23:12:10.254Z,101229.00
2023-01-26T23:14:39.102Z,101225.00
2023-01-26T23:17:08.281Z,101226.00
2023-01-26T23:19:36.885Z,101228.00
2023-01-26T23:22:05.932Z,101215.00
2023-01-26T23:24:34.706Z,101222.00
2023-01-26T23:27:03.255Z,101228.00
2023-01-26T23:29:33.232Z,101220.00
2023-01-26T23:32:01.840Z,101221.00
2023-01-26T23:34:30.730Z,101223.00
2023-01-26T23:36:59.336Z,101229.00
2023-01-26T23:39:27.892Z,101248.00
2023-01-26T23:41:56.461Z,101245.00
2023-01-26T23:44:25.041Z,101244.00
2023-01-26T23:46:55.077Z,101257.00
2023-01-26T23:49:23.722Z,101260.00
2023-01-26T23:51:52.348Z,101254.00
2023-01-26T23:54:20.928Z,101273.00
2023-01-26T23:56:49.475Z,101267.00
2023-01-26T23:59:18.014Z,101274.00
